Time;durP1;ratioP1;P1;durP2;ratioP2;P2;SDS_P1;SDS_P2;PMS_P1;PMS_P2;Temp;Humidity;BMP_temperature;BMP_pressure;BME280_temperature;BME280_humidity;BME280_pressure;Samples;Min_cycle;Max_cycle;Signal;HPM_P1;HPM_P2
2023/09/18 00:00:09;;;;;;;2.30;2.05;;;25.40;60.20;;;;;;5029545;28;20055;-49
2023/09/18 00:02:35;;;;;;;2.78;2.38;;;25.30;60.20;;;;;;5026483;28;20026;-52
2023/09/18 00:05:00;;;;;;;2.58;2.38;;;25.40;60.20;;;;;;5024633;28;20096;-51
2023/09/18 00:07:26;;;;;;;2.60;2.15;;;25.30;60.10;;;;;;5026959;28;20056;-52
2023/09/18 00:09:52;;;;;;;2.83;2.63;;;25.40;60.20;;;;;;5027153;28;20341;-48
2023/09/18 00:12:18;;;;;;;2.50;2.25;;;25.40;60.20;;;;;;5028466;28;20022;-50
2023/09/18 00:14:48;;;;;;;3.15;2.15;;;25.30;60.10;;;;;;5032099;28;20039;-54
2023/09/18 00:17:14;;;;;;;2.50;2.30;;;25.30;60.10;;;;;;5030064;28;21548;-50
2023/09/18 00:19:40;;;;;;;2.53;2.33;;;25.30;60.10;;;;;;5033566;28;20095;-48
2023/09/18 00:22:06;;;;;;;2.80;2.50;;;25.30;60.10;;;;;;5024070;28;20037;-47
2023/09/18 00:24:34;;;;;;;2.33;2.13;;;25.30;60.10;;;;;;5030634;28;20148;-49
2023/09/18 00:27:00;;;;;;;2.22;2.03;;;25.30;60.10;;;;;;5030057;28;20022;-51
2023/09/18 00:29:26;;;;;;;2.45;2.25;;;25.30;60.10;;;;;;5015199;28;20440;-52
2023/09/18 00:31:52;;;;;;;2.40;2.20;;;25.30;60.10;;;;;;5032692;28;20061;-51
2023/09/18 00:34:18;;;;;;;2.38;2.17;;;25.30;60.10;;;;;;5013263;28;20112;-45
2023/09/18 00:36:44;;;;;;;3.30;2.60;;;25.30;60.10;;;;;;5015243;28;20072;-51
2023/09/18 00:39:10;;;;;;;3.05;2.40;;;25.30;60.10;;;;;;5028870;28;20022;-49
2023/09/18 00:41:36;;;;;;;2.30;2.10;;;25.30;60.10;;;;;;5030668;28;20029;-48
2023/09/18 00:44:03;;;;;;;2.95;2.28;;;25.30;60.10;;;;;;5016289;28;20295;-49
2023/09/18 00:46:28;;;;;;;2.67;2.30;;;25.30;60.10;;;;;;5016912;28;20417;-53
2023/09/18 00:48:55;;;;;;;2.45;2.25;;;25.30;60.10;;;;;;4978882;28;20047;-52
2023/09/18 00:51:21;;;;;;;4.20;2.55;;;25.30;60.10;;;;;;4989895;28;20033;-48
2023/09/18 00:53:48;;;;;;;2.72;2.50;;;25.30;60.10;;;;;;4992010;28;20061;-52
2023/09/18 00:56:15;;;;;;;3.10;2.80;;;25.30;60.10;;;;;;4992676;28;20038;-52
2023/09/18 00:58:42;;;;;;;2.63;2.28;;;25.30;60.10;;;;;;4993478;28;20034;-53
2023/09/18 01:01:08;;;;;;;2.80;2.38;;;25.30;60.10;;;;;;4987243;28;20362;-52
2023/09/18 01:03:35;;;;;;;3.08;2.78;;;25.30;60.10;;;;;;4990102;28;20484;-49
2023/09/18 01:06:03;;;;;;;2.95;2.40;;;25.30;60.10;;;;;;4988891;28;20098;-49
2023/09/18 01:08:30;;;;;;;3.97;2.72;;;25.30;60.10;;;;;;4991353;28;20410;-50
2023/09/18 01:11:21;;;;;;;2.63;2.42;;;25.30;60.10;;;;;;4993552;28;20057;-49
2023/09/18 01:14:28;;;;;;;2.83;2.50;;;25.30;60.10;;;;;;4990279;28;20132;-53
2023/09/18 01:16:58;;;;;;;2.90;2.42;;;25.30;60.00;;;;;;4984775;28;20082;-50
2023/09/18 01:19:45;;;;;;;2.70;2.33;;;25.30;60.10;;;;;;4993203;28;20026;-49
2023/09/18 01:22:13;;;;;;;3.35;2.40;;;25.30;60.00;;;;;;4985781;28;20072;-52
2023/09/18 01:24:41;;;;;;;3.03;2.45;;;25.30;60.10;;;;;;4982900;28;20034;-51
2023/09/18 01:27:13;;;;;;;2.75;2.55;;;25.30;60.10;;;;;;4984770;28;20471;-52
2023/09/18 01:29:39;;;;;;;3.53;2.78;;;25.30;60.10;;;;;;4989458;28;20023;-51
2023/09/18 01:32:05;;;;;;;3.35;2.58;;;25.30;60.10;;;;;;4991793;28;20064;-50
2023/09/18 01:35:05;;;;;;;2.80;2.50;;;25.30;60.10;;;;;;4990148;28;20386;-54
2023/09/18 01:37:32;;;;;;;3.25;2.60;;;25.30;60.10;;;;;;4977742;28;20042;-49
2023/09/18 01:39:59;;;;;;;2.88;2.58;;;25.20;60.00;;;;;;4975003;28;20042;-55
2023/09/18 01:42:27;;;;;;;2.85;2.50;;;25.30;60.10;;;;;;4988943;28;20105;-54
2023/09/18 01:44:55;;;;;;;2.67;2.40;;;25.30;60.10;;;;;;4995454;28;20124;-52
2023/09/18 01:47:26;;;;;;;2.90;2.60;;;25.30;60.10;;;;;;4989529;28;20092;-55
2023/09/18 01:49:52;;;;;;;2.97;2.58;;;25.30;60.10;;;;;;4988346;28;20473;-55
2023/09/18 01:52:18;;;;;;;3.28;2.63;;;25.30;60.10;;;;;;4989460;28;20061;-53
2023/09/18 01:54:44;;;;;;;2.78;2.53;;;25.30;60.10;;;;;;4992881;28;20377;-54
2023/09/18 01:57:12;;;;;;;2.95;2.55;;;25.30;60.10;;;;;;4988797;28;20030;-48
2023/09/18 01:59:38;;;;;;;3.08;2.47;;;25.30;60.10;;;;;;4986845;28;20037;-56
2023/09/18 02:02:07;;;;;;;3.90;2.70;;;25.20;60.00;;;;;;4985693;28;20414;-49
2023/09/18 02:04:33;;;;;;;3.72;2.63;;;25.20;60.00;;;;;;4990017;28;20042;-50
2023/09/18 02:06:59;;;;;;;3.30;2.58;;;25.20;60.00;;;;;;4987950;28;20037;-50
2023/09/18 02:09:25;;;;;;;3.08;2.78;;;25.20;60.00;;;;;;4991560;28;20374;-52
2023/09/18 02:11:50;;;;;;;2.90;2.60;;;25.30;60.10;;;;;;4992349;28;20026;-55
2023/09/18 02:14:16;;;;;;;3.22;2.45;;;25.20;60.00;;;;;;4995451;28;20030;-55
2023/09/18 02:16:43;;;;;;;2.95;2.65;;;25.20;60.00;;;;;;4987259;28;20803;-51
2023/09/18 02:19:11;;;;;;;3.10;2.60;;;25.20;60.00;;;;;;4988227;28;20320;-48
2023/09/18 02:21:37;;;;;;;3.60;2.60;;;25.20;60.00;;;;;;4992094;28;20044;-51
2023/09/18 02:24:05;;;;;;;2.60;2.40;;;25.20;60.00;;;;;;4993761;28;20401;-50
2023/09/18 02:26:31;;;;;;;2.70;2.50;;;25.20;60.10;;;;;;4990769;28;20092;-51
2023/09/18 02:28:59;;;;;;;3.53;2.45;;;25.20;60.10;;;;;;4988671;28;20036;-51
2023/09/18 02:31:25;;;;;;;4.38;3.00;;;25.20;60.10;;;;;;4987792;28;20029;-52
2023/09/18 02:33:51;;;;;;;3.15;2.78;;;25.20;60.10;;;;;;4986507;28;20418;-52
2023/09/18 02:36:17;;;;;;;3.00;2.70;;;25.20;60.10;;;;;;4992732;28;20155;-53
2023/09/18 02:38:43;;;;;;;3.13;2.78;;;25.20;60.70;;;;;;4992201;28;20027;-49
2023/09/18 02:41:10;;;;;;;3.38;2.95;;;25.20;60.10;;;;;;4989593;28;20161;-53
2023/09/18 02:43:37;;;;;;;3.58;2.75;;;25.20;60.10;;;;;;4992501;28;20032;-52
2023/09/18 02:46:05;;;;;;;2.92;2.63;;;25.20;60.10;;;;;;4993525;28;20040;-53
2023/09/18 02:48:31;;;;;;;2.78;2.45;;;25.20;60.10;;;;;;5004200;28;20121;-54
2023/09/18 02:51:02;;;;;;;2.60;2.40;;;25.20;60.10;;;;;;5009414;28;20041;-53
2023/09/18 02:53:28;;;;;;;3.45;3.15;;;25.20;60.10;;;;;;5015055;28;20025;-56
2023/09/18 02:55:57;;;;;;;3.33;2.10;;;25.20;60.10;;;;;;5010361;28;20022;-52
2023/09/18 02:58:25;;;;;;;2.83;2.53;;;25.20;60.20;;;;;;5011246;28;20385;-51
2023/09/18 03:00:57;;;;;;;3.70;2.90;;;25.20;60.20;;;;;;5007724;28;20037;-55
2023/09/18 03:03:23;;;;;;;2.50;2.30;;;25.20;60.20;;;;;;5009674;28;20045;-51
2023/09/18 03:05:49;;;;;;;2.75;2.40;;;25.20;60.20;;;;;;5012617;28;20064;-49
2023/09/18 03:08:16;;;;;;;3.50;2.80;;;25.20;60.20;;;;;;5008832;28;20413;-48
2023/09/18 03:10:43;;;;;;;2.97;2.78;;;25.20;60.20;;;;;;5008838;28;20284;-53
2023/09/18 03:13:10;;;;;;;2.85;2.50;;;25.20;60.20;;;;;;5010619;28;20056;-50
2023/09/18 03:15:37;;;;;;;2.90;2.60;;;25.20;60.20;;;;;;5015555;28;20077;-51
2023/09/18 03:18:09;;;;;;;3.78;2.80;;;25.20;60.20;;;;;;5013748;28;20026;-53
2023/09/18 03:20:35;;;;;;;2.88;2.40;;;25.20;60.20;;;;;;5014295;28;20113;-51
2023/09/18 03:23:02;;;;;;;2.60;2.22;;;25.20;60.20;;;;;;4997679;28;20040;-46
2023/09/18 03:25:28;;;;;;;2.95;2.35;;;25.20;60.20;;;;;;5006434;28;20050;-48
2023/09/18 03:27:55;;;;;;;3.00;2.70;;;25.20;60.20;;;;;;5006629;28;20443;-50
2023/09/18 03:30:24;;;;;;;2.45;2.25;;;25.20;60.20;;;;;;5011511;28;20060;-54
2023/09/18 03:32:52;;;;;;;3.35;2.90;;;25.20;60.20;;;;;;5010772;28;20046;-51
2023/09/18 03:35:19;;;;;;;3.28;2.50;;;25.20;60.30;;;;;;5012815;28;20037;-56
2023/09/18 03:37:51;;;;;;;2.55;2.35;;;25.20;60.30;;;;;;5017899;28;21570;-51
2023/09/18 03:40:18;;;;;;;3.13;2.40;;;25.20;60.30;;;;;;5024232;28;20396;-51
2023/09/18 03:42:45;;;;;;;2.85;2.58;;;25.20;60.30;;;;;;5007031;28;20030;-55
2023/09/18 03:45:11;;;;;;;2.70;2.50;;;25.20;60.30;;;;;;5013658;28;20037;-51
2023/09/18 03:47:39;;;;;;;3.60;2.60;;;25.20;60.30;;;;;;5007097;28;20026;-50
2023/09/18 03:50:12;;;;;;;3.55;2.47;;;25.20;60.30;;;;;;5012929;28;20029;-49
2023/09/18 03:52:39;;;;;;;3.60;3.03;;;25.20;60.30;;;;;;5016897;28;20119;-52
2023/09/18 03:55:07;;;;;;;4.60;2.53;;;25.20;60.40;;;;;;5013344;28;20033;-51
2023/09/18 03:57:33;;;;;;;3.42;2.53;;;25.20;60.40;;;;;;5007020;28;20040;-50
2023/09/18 03:59:59;;;;;;;3.53;2.85;;;25.10;60.30;;;;;;5028573;28;20043;-52
2023/09/18 04:02:25;;;;;;;3.28;2.50;;;25.20;60.40;;;;;;5029699;28;20305;-48
2023/09/18 04:04:54;;;;;;;5.00;2.85;;;25.20;60.50;;;;;;5004357;28;20377;-53
2023/09/18 04:07:20;;;;;;;2.90;2.42;;;25.20;60.50;;;;;;5003605;28;20101;-49
2023/09/18 04:09:46;;;;;;;2.80;2.47;;;25.20;60.60;;;;;;5027219;28;20410;-50
2023/09/18 04:12:12;;;;;;;3.00;2.67;;;25.20;60.60;;;;;;5007362;28;20029;-51
2023/09/18 04:14:38;;;;;;;3.60;2.88;;;25.10;61.10;;;;;;5021176;28;20444;-53
2023/09/18 04:17:05;;;;;;;3.70;2.97;;;25.20;60.60;;;;;;5027730;28;20041;-48
2023/09/18 04:19:31;;;;;;;5.22;3.10;;;25.20;60.60;;;;;;5032137;28;20052;-52
2023/09/18 04:21:57;;;;;;;3.10;2.80;;;25.10;60.50;;;;;;5028734;28;20033;-49
2023/09/18 04:24:23;;;;;;;3.50;3.00;;;25.10;60.60;;;;;;5006203;28;20310;-48
2023/09/18 04:26:50;;;;;;;3.90;3.00;;;25.20;60.60;;;;;;5011180;28;20484;-51
2023/09/18 04:29:17;;;;;;;3.97;2.72;;;25.20;60.70;;;;;;5011605;28;20480;-49
2023/09/18 04:31:43;;;;;;;4.82;3.30;;;25.20;60.70;;;;;;5009228;28;20355;-49
2023/09/18 04:34:10;;;;;;;2.90;2.60;;;25.10;60.60;;;;;;5007966;28;20025;-53
2023/09/18 04:36:37;;;;;;;4.40;3.03;;;25.20;60.70;;;;;;5002677;28;20038;-49
2023/09/18 04:39:05;;;;;;;2.78;2.40;;;25.20;60.70;;;;;;5011176;28;20091;-53
2023/09/18 04:41:31;;;;;;;3.70;2.80;;;25.20;60.70;;;;;;5029304;28;20059;-47
2023/09/18 04:43:58;;;;;;;2.95;2.65;;;25.20;60.80;;;;;;5001572;28;20037;-51
2023/09/18 04:46:24;;;;;;;3.70;2.88;;;25.20;60.70;;;;;;5005113;28;20044;-52
2023/09/18 04:48:51;;;;;;;3.70;2.80;;;25.20;60.70;;;;;;5011259;28;20056;-45
2023/09/18 04:51:17;;;;;;;3.40;2.53;;;25.10;60.70;;;;;;5028179;28;20127;-51
2023/09/18 04:53:43;;;;;;;3.38;2.50;;;25.20;60.80;;;;;;5003909;28;20391;-50
2023/09/18 04:56:10;;;;;;;3.90;2.83;;;25.20;60.80;;;;;;5009228;28;20040;-48
2023/09/18 04:58:37;;;;;;;3.17;2.63;;;25.10;60.70;;;;;;5004430;28;20120;-46
2023/09/18 05:01:06;;;;;;;5.22;2.97;;;25.10;60.70;;;;;;5030638;28;20017;-51
2023/09/18 05:03:35;;;;;;;4.30;2.70;;;25.20;60.80;;;;;;5010099;28;20029;-49
2023/09/18 05:06:03;;;;;;;3.38;2.63;;;25.20;60.80;;;;;;5020475;28;20081;-50
2023/09/18 05:08:29;;;;;;;5.13;2.85;;;25.20;60.80;;;;;;5030586;28;20127;-52
2023/09/18 05:10:55;;;;;;;3.40;2.63;;;25.10;60.80;;;;;;5034763;28;20025;-51
2023/09/18 05:13:21;;;;;;;3.35;3.05;;;25.20;60.80;;;;;;5031840;28;20034;-50
2023/09/18 05:15:47;;;;;;;4.00;2.35;;;25.10;60.80;;;;;;5028467;28;20374;-51
2023/09/18 05:18:13;;;;;;;3.30;2.47;;;25.20;60.90;;;;;;5034319;28;20039;-46
2023/09/18 05:20:40;;;;;;;3.55;2.85;;;25.10;60.90;;;;;;5030598;28;20029;-48
2023/09/18 05:23:06;;;;;;;3.67;2.50;;;25.10;60.90;;;;;;5030393;28;20451;-50
2023/09/18 05:25:36;;;;;;;3.25;2.40;;;25.10;60.90;;;;;;5030994;28;20037;-49
2023/09/18 05:28:05;;;;;;;4.72;2.50;;;25.20;61.00;;;;;;5028230;28;20048;-53
2023/09/18 05:30:35;;;;;;;2.63;2.22;;;25.20;61.10;;;;;;5029136;28;20041;-49
2023/09/18 05:33:04;;;;;;;2.88;2.30;;;25.20;61.10;;;;;;5030501;28;20033;-49
2023/09/18 05:35:51;;;;;;;2.70;2.28;;;25.10;61.10;;;;;;5033750;28;20029;-54
2023/09/18 05:38:17;;;;;;;3.67;2.60;;;25.10;61.10;;;;;;5030052;28;20069;-51
2023/09/18 05:40:44;;;;;;;4.57;2.78;;;25.20;61.20;;;;;;5031001;28;20167;-46
2023/09/18 05:43:11;;;;;;;5.30;2.20;;;25.10;61.20;;;;;;5029693;28;20037;-46
2023/09/18 05:45:38;;;;;;;4.13;2.53;;;25.10;61.20;;;;;;5027188;28;20509;-46
2023/09/18 05:48:04;;;;;;;3.35;2.30;;;25.10;61.30;;;;;;5011830;28;20113;-54
2023/09/18 05:50:32;;;;;;;2.58;2.38;;;25.10;61.30;;;;;;5032072;28;20112;-51
2023/09/18 05:53:03;;;;;;;4.93;2.40;;;25.10;61.30;;;;;;5029492;28;20033;-49
2023/09/18 05:55:35;;;;;;;2.90;2.58;;;25.20;61.50;;;;;;5030270;28;20076;-51
2023/09/18 05:58:04;;;;;;;2.95;2.60;;;25.20;61.50;;;;;;5015608;28;20100;-51
2023/09/18 06:00:30;;;;;;;3.10;2.40;;;25.20;61.60;;;;;;5030433;28;20029;-53
2023/09/18 06:02:56;;;;;;;3.95;2.50;;;25.10;61.50;;;;;;5031750;28;20352;-49
2023/09/18 06:05:22;;;;;;;3.33;2.53;;;25.10;61.50;;;;;;5029131;28;20095;-53
2023/09/18 06:07:49;;;;;;;3.08;2.40;;;25.20;61.70;;;;;;5030911;28;20090;-55
2023/09/18 06:10:15;;;;;;;4.82;2.30;;;25.20;61.70;;;;;;5028423;28;20409;-51
2023/09/18 06:12:41;;;;;;;4.25;2.50;;;25.20;61.80;;;;;;5030868;28;20074;-54
2023/09/18 06:15:11;;;;;;;3.10;2.58;;;25.20;61.80;;;;;;5027084;28;20150;-55
2023/09/18 06:17:41;;;;;;;3.63;2.58;;;25.20;61.90;;;;;;5031660;28;20029;-51
2023/09/18 06:20:09;;;;;;;4.60;2.30;;;25.20;61.90;;;;;;5036428;28;20428;-49
2023/09/18 06:22:39;;;;;;;2.75;2.33;;;25.20;61.90;;;;;;5030763;28;20417;-49
2023/09/18 06:25:11;;;;;;;3.28;2.20;;;25.20;62.00;;;;;;5029172;28;20099;-51
2023/09/18 06:27:38;;;;;;;3.03;2.40;;;25.20;62.00;;;;;;5027119;28;20080;-56
2023/09/18 06:30:06;;;;;;;4.32;2.50;;;25.20;62.00;;;;;;5028400;28;20054;-56
2023/09/18 06:32:32;;;;;;;2.97;2.58;;;25.20;62.00;;;;;;5044420;28;20026;-53
2023/09/18 06:34:58;;;;;;;4.55;2.55;;;25.20;62.00;;;;;;5026609;28;20162;-48
2023/09/18 06:37:28;;;;;;;5.85;2.78;;;25.20;62.10;;;;;;5022435;28;20436;-50
2023/09/18 06:39:54;;;;;;;5.15;2.70;;;25.20;62.10;;;;;;5044637;28;20052;-53
2023/09/18 06:42:24;;;;;;;4.00;2.50;;;25.20;62.20;;;;;;5048099;28;20032;-56
2023/09/18 06:44:56;;;;;;;3.78;2.88;;;25.20;62.20;;;;;;5027071;28;20562;-50
2023/09/18 06:47:24;;;;;;;6.80;2.58;;;25.20;62.20;;;;;;5026602;28;20021;-53
2023/09/18 06:49:51;;;;;;;4.00;3.00;;;25.20;62.20;;;;;;5043050;28;20049;-50
2023/09/18 06:52:17;;;;;;;3.63;2.50;;;25.20;62.20;;;;;;5032806;28;20398;-50
2023/09/18 06:54:43;;;;;;;5.60;2.85;;;25.20;62.30;;;;;;5035763;28;20093;-49
2023/09/18 06:57:10;;;;;;;3.63;2.40;;;25.20;62.30;;;;;;5032377;28;20033;-50
2023/09/18 06:59:36;;;;;;;3.95;2.72;;;25.20;62.30;;;;;;5041913;28;20329;-50
2023/09/18 07:02:02;;;;;;;4.53;2.58;;;25.20;62.30;;;;;;5048655;28;20036;-52
2023/09/18 07:04:28;;;;;;;3.72;2.33;;;25.20;62.30;;;;;;5028974;28;20067;-48
2023/09/18 07:06:56;;;;;;;4.22;2.58;;;25.20;62.30;;;;;;5003540;28;20030;-50
2023/09/18 07:09:22;;;;;;;3.33;2.58;;;25.20;62.30;;;;;;5033028;28;20168;-49
2023/09/18 07:11:49;;;;;;;4.05;2.60;;;25.20;62.30;;;;;;5025624;28;20052;-52
2023/09/18 07:14:15;;;;;;;3.70;2.38;;;25.20;62.30;;;;;;5029315;28;20126;-52
2023/09/18 07:16:41;;;;;;;3.30;2.40;;;25.20;62.30;;;;;;5028558;28;20036;-53
2023/09/18 07:19:07;;;;;;;3.58;2.22;;;25.20;62.20;;;;;;5032313;28;20033;-52
2023/09/18 07:21:35;;;;;;;3.33;2.17;;;25.20;62.20;;;;;;5029539;28;20029;-52
2023/09/18 07:24:01;;;;;;;3.92;2.28;;;25.20;62.20;;;;;;5032828;28;20412;-51
2023/09/18 07:26:26;;;;;;;5.63;2.63;;;25.20;62.20;;;;;;5026844;28;20100;-53
2023/09/18 07:28:52;;;;;;;3.28;2.13;;;25.20;62.20;;;;;;5029427;28;20390;-54
2023/09/18 07:31:18;;;;;;;2.67;1.90;;;25.30;62.30;;;;;;5032959;28;20033;-52
2023/09/18 07:33:44;;;;;;;3.75;2.25;;;25.20;62.10;;;;;;5029707;28;20029;-55
2023/09/18 07:36:10;;;;;;;4.03;2.20;;;25.20;62.70;;;;;;5030897;28;20360;-54
2023/09/18 07:38:37;;;;;;;2.97;2.20;;;25.30;62.10;;;;;;5029072;28;20412;-51
2023/09/18 07:41:03;;;;;;;2.58;1.83;;;25.30;62.00;;;;;;5013543;28;20099;-53
2023/09/18 07:43:29;;;;;;;2.55;1.77;;;25.30;61.90;;;;;;5029058;28;20025;-51
2023/09/18 07:45:56;;;;;;;3.00;1.90;;;25.20;61.70;;;;;;5018664;28;20352;-50
2023/09/18 07:48:22;;;;;;;2.08;1.88;;;25.30;61.70;;;;;;5038074;28;20124;-51
2023/09/18 07:50:49;;;;;;;2.35;1.60;;;25.30;61.60;;;;;;5029329;28;20048;-52
2023/09/18 07:53:16;;;;;;;2.30;1.70;;;25.30;61.50;;;;;;4997607;28;20417;-52
2023/09/18 07:55:42;;;;;;;2.55;1.60;;;25.30;61.50;;;;;;5005347;28;20116;-51
2023/09/18 07:58:09;;;;;;;3.00;1.63;;;25.30;61.40;;;;;;5001840;28;20123;-52
2023/09/18 08:00:35;;;;;;;2.15;1.38;;;25.20;61.30;;;;;;5027099;28;20385;-50
2023/09/18 08:03:01;;;;;;;2.15;1.30;;;25.30;61.30;;;;;;5028130;28;20037;-48
2023/09/18 08:05:28;;;;;;;2.65;1.85;;;25.30;61.20;;;;;;5012837;28;20176;-53
2023/09/18 08:07:58;;;;;;;2.38;1.60;;;25.30;61.20;;;;;;5032292;28;20345;-51
2023/09/18 08:10:25;;;;;;;1.55;1.23;;;25.30;61.10;;;;;;5031447;28;20029;-54
2023/09/18 08:12:52;;;;;;;2.67;1.55;;;25.30;61.10;;;;;;5033586;28;20017;-45
2023/09/18 08:15:20;;;;;;;4.55;1.42;;;25.30;61.10;;;;;;5030787;28;20021;-45
2023/09/18 08:17:48;;;;;;;3.15;1.65;;;25.30;61.10;;;;;;5024632;28;20109;-47
2023/09/18 08:20:15;;;;;;;2.35;1.52;;;25.30;61.00;;;;;;5027712;28;20083;-52
2023/09/18 08:22:44;;;;;;;1.65;1.30;;;25.30;61.00;;;;;;5029987;28;20462;-48
2023/09/18 08:25:11;;;;;;;2.38;1.60;;;25.30;61.00;;;;;;5037180;28;20176;-47
2023/09/18 08:27:43;;;;;;;3.65;1.40;;;25.30;60.90;;;;;;5051367;28;20158;-52
2023/09/18 08:30:11;;;;;;;2.33;1.45;;;25.30;60.90;;;;;;5033426;28;20033;-52
2023/09/18 08:32:38;;;;;;;3.03;1.75;;;25.30;60.90;;;;;;5051237;28;20037;-56
2023/09/18 08:35:04;;;;;;;2.20;1.40;;;25.30;60.80;;;;;;5051855;28;20059;-49
2023/09/18 08:37:31;;;;;;;1.60;1.30;;;25.30;60.70;;;;;;5055307;28;20085;-52
2023/09/18 08:39:56;;;;;;;1.98;1.30;;;25.40;60.70;;;;;;5053284;28;20044;-52
2023/09/18 08:42:24;;;;;;;2.33;1.52;;;25.30;60.50;;;;;;5055113;28;20379;-52
2023/09/18 08:44:53;;;;;;;2.25;1.38;;;25.30;60.50;;;;;;5055181;28;20041;-51
2023/09/18 08:47:20;;;;;;;1.75;1.20;;;25.40;60.50;;;;;;5054664;28;20089;-51
2023/09/18 08:49:49;;;;;;;1.67;1.00;;;25.30;60.30;;;;;;5036606;28;20427;-50
2023/09/18 08:52:16;;;;;;;1.42;1.10;;;25.40;60.40;;;;;;5054966;28;20037;-55
2023/09/18 08:54:43;;;;;;;2.08;1.10;;;25.40;60.30;;;;;;5034906;28;20317;-53
2023/09/18 08:57:09;;;;;;;1.35;1.00;;;25.40;60.20;;;;;;5054427;28;20112;-54
2023/09/18 08:59:38;;;;;;;1.73;1.23;;;25.40;60.10;;;;;;5054584;28;20124;-49
2023/09/18 09:02:04;;;;;;;3.63;1.38;;;25.40;60.10;;;;;;5044029;28;20460;-49
2023/09/18 09:04:30;;;;;;;1.45;1.20;;;25.40;60.60;;;;;;5034473;28;20433;-54
2023/09/18 09:06:59;;;;;;;1.33;1.13;;;25.40;60.00;;;;;;5019027;28;20071;-54
2023/09/18 09:09:29;;;;;;;1.60;1.17;;;25.40;59.90;;;;;;5052523;28;20044;-48
2023/09/18 09:11:55;;;;;;;1.95;1.10;;;25.40;59.80;;;;;;5054590;28;20100;-51
2023/09/18 09:14:27;;;;;;;1.20;0.85;;;25.40;59.80;;;;;;5054664;28;20120;-53
2023/09/18 09:16:54;;;;;;;1.83;1.02;;;25.40;59.70;;;;;;5051438;28;20025;-53
2023/09/18 09:19:42;;;;;;;1.55;1.08;;;25.40;59.70;;;;;;5052368;28;20444;-52
2023/09/18 09:22:09;;;;;;;1.30;0.90;;;25.50;59.60;;;;;;5054191;28;20033;-52
2023/09/18 09:24:40;;;;;;;1.50;1.13;;;25.40;59.50;;;;;;5036519;28;20033;-50
2023/09/18 09:27:06;;;;;;;2.15;1.10;;;25.50;59.60;;;;;;5054453;28;20106;-50
2023/09/18 09:29:32;;;;;;;1.05;0.80;;;25.50;59.50;;;;;;5036513;28;20037;-53
2023/09/18 09:32:14;;;;;;;1.42;1.15;;;25.50;59.50;;;;;;5034950;28;20034;-51
2023/09/18 09:34:41;;;;;;;1.30;0.90;;;25.50;59.40;;;;;;5054152;28;20108;-51
2023/09/18 09:37:07;;;;;;;1.35;0.95;;;25.50;59.40;;;;;;5054257;28;20116;-50
2023/09/18 09:39:34;;;;;;;2.42;0.90;;;25.50;59.30;;;;;;5054013;28;20075;-51
2023/09/18 09:42:03;;;;;;;1.60;1.27;;;25.50;59.30;;;;;;5054086;28;20029;-52
2023/09/18 09:44:32;;;;;;;1.88;0.70;;;25.50;59.30;;;;;;5053990;28;20044;-54
2023/09/18 09:46:59;;;;;;;1.00;0.80;;;25.50;59.20;;;;;;5051019;28;20044;-54
2023/09/18 09:49:27;;;;;;;1.20;0.88;;;25.50;59.20;;;;;;5053862;28;20337;-55
2023/09/18 09:51:59;;;;;;;0.85;0.70;;;25.50;59.10;;;;;;5053822;28;20101;-49
2023/09/18 09:54:36;;;;;;;1.65;1.20;;;25.60;59.10;;;;;;5054188;28;20036;-52
2023/09/18 09:57:03;;;;;;;1.50;0.90;;;25.60;59.10;;;;;;5053882;28;20476;-51
2023/09/18 09:59:29;;;;;;;1.20;0.80;;;25.50;59.60;;;;;;5054290;28;20053;-49
2023/09/18 10:01:58;;;;;;;1.10;0.88;;;25.50;59.00;;;;;;5032917;28;20425;-50
2023/09/18 10:04:28;;;;;;;1.45;0.90;;;25.60;59.00;;;;;;5053594;28;20033;-50
2023/09/18 10:07:08;;;;;;;1.05;0.85;;;25.50;58.90;;;;;;5033730;28;20044;-48
2023/09/18 10:09:35;;;;;;;2.35;1.10;;;25.60;58.90;;;;;;5052340;28;20037;-53
2023/09/18 10:12:07;;;;;;;1.30;0.82;;;25.60;58.90;;;;;;5052391;28;20482;-50
2023/09/18 10:14:35;;;;;;;1.15;0.90;;;25.60;58.90;;;;;;5053486;28;20056;-54
2023/09/18 10:17:19;;;;;;;1.75;1.23;;;25.60;58.80;;;;;;5050845;28;20554;-52
2023/09/18 10:20:08;;;;;;;0.90;0.70;;;25.60;58.80;;;;;;5028943;28;20122;-51
2023/09/18 10:22:46;;;;;;;1.90;0.93;;;25.60;58.90;;;;;;5013797;28;20374;-54
2023/09/18 10:25:21;;;;;;;1.20;0.90;;;25.60;58.80;;;;;;5013129;28;20140;-54
2023/09/18 10:27:49;;;;;;;2.55;1.13;;;25.60;58.80;;;;;;5018902;28;20040;-49
2023/09/18 10:30:18;;;;;;;0.90;0.70;;;25.60;58.70;;;;;;5033400;28;20345;-54
2023/09/18 10:32:48;;;;;;;1.52;0.95;;;25.60;58.70;;;;;;5032924;28;20029;-52
2023/09/18 10:35:15;;;;;;;2.15;0.82;;;25.60;58.60;;;;;;5031551;28;20106;-53
2023/09/18 10:37:46;;;;;;;1.08;0.90;;;25.60;58.60;;;;;;5032615;28;20037;-49
2023/09/18 10:40:12;;;;;;;0.90;0.73;;;25.60;58.50;;;;;;5016265;28;20029;-53
2023/09/18 10:42:53;;;;;;;2.15;0.90;;;25.70;58.50;;;;;;5031192;28;20037;-56
2023/09/18 10:45:20;;;;;;;1.60;1.00;;;25.70;58.40;;;;;;5030266;28;20120;-56
2023/09/18 10:47:48;;;;;;;2.17;1.00;;;25.70;58.40;;;;;;5038992;28;20037;-53
2023/09/18 10:50:26;;;;;;;1.60;0.98;;;25.70;58.30;;;;;;5015366;28;20040;-53
2023/09/18 10:52:53;;;;;;;1.38;0.90;;;25.70;58.20;;;;;;5035647;28;20025;-50
2023/09/18 10:55:21;;;;;;;2.10;1.00;;;25.70;58.10;;;;;;5039816;28;20025;-54
2023/09/18 10:57:55;;;;;;;1.67;0.90;;;25.70;58.10;;;;;;5038621;28;20030;-55
2023/09/18 11:00:25;;;;;;;2.13;0.82;;;25.70;58.00;;;;;;5023382;28;20118;-50
2023/09/18 11:03:08;;;;;;;1.63;1.10;;;25.80;58.00;;;;;;5036161;28;20040;-50
2023/09/18 11:05:35;;;;;;;1.53;0.93;;;25.70;57.80;;;;;;5045868;28;20044;-54
2023/09/18 11:08:35;;;;;;;2.45;0.90;;;25.70;57.80;;;;;;5044884;28;20675;-56
2023/09/18 11:11:09;;;;;;;1.42;1.00;;;25.70;57.70;;;;;;4994067;28;20045;-51
2023/09/18 11:13:45;;;;;;;1.23;0.90;;;25.70;57.70;;;;;;5025615;28;20030;-51
2023/09/18 11:16:21;;;;;;;2.08;1.00;;;25.70;57.50;;;;;;5030016;28;20080;-54
2023/09/18 11:18:59;;;;;;;1.55;0.85;;;25.80;57.60;;;;;;5029758;28;20045;-49
2023/09/18 11:21:27;;;;;;;1.70;1.00;;;25.80;57.50;;;;;;5021974;28;20093;-55
2023/09/18 11:24:11;;;;;;;1.20;1.00;;;25.80;57.50;;;;;;5008463;28;20103;-52
2023/09/18 11:26:41;;;;;;;1.30;0.95;;;25.80;57.40;;;;;;5028299;28;20132;-51
2023/09/18 11:29:10;;;;;;;1.10;0.80;;;25.80;57.40;;;;;;5026191;28;20026;-52
2023/09/18 11:31:50;;;;;;;1.52;0.80;;;25.80;57.30;;;;;;5026455;28;20046;-54
2023/09/18 11:34:38;;;;;;;1.85;1.10;;;25.80;57.30;;;;;;5006200;28;20374;-51
2023/09/18 11:37:21;;;;;;;1.75;0.93;;;25.80;57.20;;;;;;5035084;28;20021;-55
2023/09/18 11:39:47;;;;;;;1.33;0.80;;;25.80;57.20;;;;;;5035144;28;20033;-51
2023/09/18 11:42:17;;;;;;;2.42;1.00;;;25.80;57.10;;;;;;5040678;28;20357;-49
2023/09/18 11:44:46;;;;;;;1.33;1.00;;;25.80;57.10;;;;;;5040709;28;20090;-48
2023/09/18 11:47:24;;;;;;;1.73;0.80;;;25.80;57.10;;;;;;5049793;28;20048;-52
2023/09/18 11:49:59;;;;;;;4.15;1.10;;;25.80;57.80;;;;;;5049211;28;20401;-54
2023/09/18 11:52:29;;;;;;;1.55;1.00;;;25.80;57.30;;;;;;5045816;28;20055;-52
2023/09/18 11:55:00;;;;;;;1.27;1.10;;;25.80;57.40;;;;;;5031434;28;20025;-52
2023/09/18 11:57:28;;;;;;;1.60;1.05;;;25.80;57.50;;;;;;5035805;28;20098;-57
2023/09/18 11:59:55;;;;;;;1.50;0.90;;;25.80;57.50;;;;;;5027308;28;20329;-50
2023/09/18 12:02:38;;;;;;;2.08;1.10;;;25.80;57.60;;;;;;5032416;28;20053;-51
2023/09/18 12:05:15;;;;;;;2.75;1.20;;;25.90;57.80;;;;;;5023457;28;20449;-53
2023/09/18 12:07:45;;;;;;;2.05;1.23;;;25.90;57.80;;;;;;5031715;28;20059;-52
2023/09/18 12:10:16;;;;;;;2.47;1.02;;;26.00;57.80;;;;;;5034385;28;20462;-48
2023/09/18 12:12:43;;;;;;;1.20;0.95;;;26.00;57.70;;;;;;5038893;28;20430;-52
2023/09/18 12:15:14;;;;;;;2.53;1.10;;;26.10;57.60;;;;;;5038624;28;20128;-53
2023/09/18 12:17:40;;;;;;;1.55;1.00;;;26.20;57.40;;;;;;5038780;28;20111;-54
2023/09/18 12:20:14;;;;;;;1.33;0.85;;;26.30;57.30;;;;;;5020873;28;20111;-49
2023/09/18 12:22:40;;;;;;;2.03;1.10;;;26.30;57.00;;;;;;5028501;28;20029;-54
2023/09/18 12:25:11;;;;;;;1.10;0.93;;;26.40;56.80;;;;;;5038695;28;20044;-54
2023/09/18 12:27:39;;;;;;;1.85;1.13;;;26.50;56.60;;;;;;5038770;28;20033;-55
2023/09/18 12:30:10;;;;;;;1.70;0.95;;;26.50;56.30;;;;;;5035586;28;20115;-55
2023/09/18 12:32:42;;;;;;;2.63;0.98;;;26.60;56.10;;;;;;5038330;28;20409;-56
2023/09/18 12:35:09;;;;;;;2.93;1.47;;;26.70;55.90;;;;;;5039305;28;20033;-54
2023/09/18 12:37:40;;;;;;;1.13;0.88;;;26.70;55.80;;;;;;5038827;28;20084;-54
2023/09/18 12:40:22;;;;;;;2.25;0.95;;;26.80;55.60;;;;;;5038673;28;20436;-53
2023/09/18 12:42:49;;;;;;;1.92;1.15;;;26.80;55.40;;;;;;5034130;28;20510;-54
2023/09/18 12:45:17;;;;;;;1.42;0.90;;;26.90;55.40;;;;;;5050178;28;20029;-51
2023/09/18 12:47:44;;;;;;;1.52;1.00;;;26.90;55.40;;;;;;5013206;28;20022;-57
2023/09/18 12:50:13;;;;;;;1.48;1.25;;;27.00;55.40;;;;;;5038078;28;20021;-53
2023/09/18 12:52:40;;;;;;;2.72;0.90;;;27.00;55.30;;;;;;5036664;28;20045;-51
2023/09/18 12:55:07;;;;;;;1.92;1.10;;;27.10;55.20;;;;;;5029169;28;20057;-52